createdAt,value
2023-01-12T00:02:07.470Z,87.36
2023-01-12T00:04:36.029Z,88.25
2023-01-12T00:07:07.485Z,87.85
2023-01-12T00:09:35.371Z,88.55
2023-01-12T00:12:06.367Z,88.59
2023-01-12T00:14:34.530Z,88.70
2023-01-12T00:17:02.467Z,88.73
2023-01-12T00:19:30.454Z,89.71
2023-01-12T00:22:02.244Z,89.35
2023-01-12T00:24:31.555Z,89.84
2023-01-12T00:27:01.111Z,89.90
2023-01-12T00:29:30.437Z,90.23
2023-01-12T00:32:00.739Z,89.57
2023-01-12T00:34:29.875Z,90.01
2023-01-12T00:36:58.606Z,90.12
2023-01-12T00:39:26.447Z,89.57
2023-01-12T00:42:12.005Z,89.78
2023-01-12T00:44:59.233Z,89.72
2023-01-12T00:47:27.360Z,89.49
2023-01-12T00:49:55.225Z,89.65
2023-01-12T00:52:30.847Z,89.75
2023-01-12T00:55:00.224Z,90.07
2023-01-12T00:57:28.772Z,89.23
2023-01-12T01:00:00.013Z,89.24
2023-01-12T01:02:29.224Z,89.31
2023-01-12T01:04:57.557Z,89.67
2023-01-12T01:07:25.993Z,88.99
2023-01-12T01:09:54.513Z,89.59
2023-01-12T01:12:22.542Z,89.11
2023-01-12T01:14:50.633Z,89.67
2023-01-12T01:17:19.806Z,88.55
2023-01-12T01:19:48.959Z,88.54
2023-01-12T01:22:16.745Z,88.32
2023-01-12T01:24:44.637Z,88.25
2023-01-12T01:27:12.664Z,88.21
2023-01-12T01:29:40.712Z,87.82
2023-01-12T01:32:08.871Z,88.39
2023-01-12T01:34:38.149Z,87.74
2023-01-12T01:37:05.968Z,87.86
2023-01-12T01:39:33.820Z,87.79
2023-01-12T01:42:02.097Z,87.54
2023-01-12T01:44:53.622Z,87.64
2023-01-12T01:47:31.287Z,86.78
2023-01-12T01:50:03.535Z,87.06
2023-01-12T01:52:35.098Z,87.30
2023-01-12T01:55:06.597Z,87.33
2023-01-12T01:57:41.663Z,86.88
2023-01-12T02:00:13.018Z,87.37
2023-01-12T02:02:43.010Z,87.65
2023-01-12T02:05:13.533Z,87.35
2023-01-12T02:07:42.118Z,86.65
2023-01-12T02:10:11.003Z,86.93
2023-01-12T02:12:56.652Z,87.46
2023-01-12T02:15:45.639Z,86.83
2023-01-12T02:18:22.629Z,87.24
2023-01-12T02:21:05.593Z,87.05
2023-01-12T02:24:10.610Z,87.03
2023-01-12T02:27:30.009Z,86.91
2023-01-12T02:30:36.805Z,87.27
2023-01-12T02:33:19.779Z,86.87
2023-01-12T02:35:56.422Z,86.45
2023-01-12T02:38:32.234Z,86.74
2023-01-12T02:41:10.557Z,86.63
2023-01-12T02:43:40.148Z,86.27
2023-01-12T02:46:14.360Z,86.31
2023-01-12T02:48:48.211Z,86.82
2023-01-12T02:51:23.524Z,85.94
2023-01-12T02:53:53.716Z,86.07
2023-01-12T02:56:51.625Z,85.95
2023-01-12T02:59:23.958Z,86.20
2023-01-12T03:01:54.643Z,86.12
2023-01-12T03:04:24.596Z,86.08
2023-01-12T03:07:23.995Z,86.03
2023-01-12T03:09:57.420Z,86.24
2023-01-12T03:12:30.096Z,85.65
2023-01-12T03:15:00.913Z,85.79
2023-01-12T03:17:33.923Z,85.87
2023-01-12T03:20:06.978Z,85.53
2023-01-12T03:22:38.369Z,85.57
2023-01-12T03:25:11.193Z,85.78
2023-01-12T03:27:41.593Z,85.21
2023-01-12T03:30:14.080Z,86.04
2023-01-12T03:32:42.421Z,85.15
2023-01-12T03:35:12.588Z,85.75
2023-01-12T03:37:45.826Z,85.38
2023-01-12T03:40:19.859Z,85.47
2023-01-12T03:42:52.556Z,85.92
2023-01-12T03:45:28.025Z,85.86
2023-01-12T03:48:01.419Z,85.96
2023-01-12T03:50:40.009Z,85.84
2023-01-12T03:53:09.555Z,85.96
2023-01-12T03:55:39.804Z,86.28
2023-01-12T03:58:08.042Z,86.32
2023-01-12T04:00:36.231Z,86.22
2023-01-12T04:03:05.842Z,86.06
2023-01-12T04:05:35.210Z,86.31
2023-01-12T04:08:03.008Z,85.50
2023-01-12T04:10:30.876Z,85.83
2023-01-12T04:12:57.709Z,86.26
2023-01-12T04:15:25.627Z,86.10
2023-01-12T04:17:53.438Z,85.38
2023-01-12T04:20:21.714Z,85.89
2023-01-12T04:22:49.897Z,85.99
2023-01-12T04:25:19.617Z,86.63
2023-01-12T04:27:50.681Z,86.20
2023-01-12T04:30:22.817Z,86.12
2023-01-12T04:32:50.754Z,86.10
2023-01-12T04:35:18.983Z,86.07
2023-01-12T04:37:47.134Z,86.45
2023-01-12T04:40:17.735Z,86.55
2023-01-12T04:43:01.897Z,86.81
2023-01-12T04:45:30.290Z,86.57
2023-01-12T04:48:02.690Z,86.67
2023-01-12T04:50:30.871Z,86.93
2023-01-12T04:52:58.938Z,86.98
2023-01-12T04:55:28.139Z,86.79
2023-01-12T04:57:57.099Z,87.04
2023-01-12T05:00:25.096Z,87.12
2023-01-12T05:02:58.124Z,87.15
2023-01-12T05:05:26.290Z,86.86
2023-01-12T05:08:11.816Z,86.93
2023-01-12T05:10:41.106Z,87.33
2023-01-12T05:13:08.958Z,86.42
2023-01-12T05:15:36.804Z,87.15
2023-01-12T05:18:05.466Z,86.23
2023-01-12T05:20:33.321Z,86.37
2023-01-12T05:23:01.140Z,86.49
2023-01-12T05:25:29.389Z,85.82
2023-01-12T05:27:58.706Z,85.99
2023-01-12T05:30:27.078Z,86.25
2023-01-12T05:32:55.321Z,86.89
2023-01-12T05:35:23.377Z,85.88
2023-01-12T05:37:51.229Z,85.53
2023-01-12T05:40:19.286Z,85.71
2023-01-12T05:43:04.467Z,85.06
2023-01-12T05:45:34.896Z,85.29
2023-01-12T05:48:02.719Z,86.51
2023-01-12T05:50:30.748Z,86.08
2023-01-12T05:53:11.215Z,85.73
2023-01-12T05:55:39.477Z,86.03
2023-01-12T05:58:07.477Z,86.20
2023-01-12T06:00:36.748Z,85.88
2023-01-12T06:03:04.847Z,86.19
2023-01-12T06:05:32.709Z,86.57
2023-01-12T06:08:02.697Z,85.94
2023-01-12T06:10:30.576Z,86.27
2023-01-12T06:13:21.042Z,86.00
2023-01-12T06:15:50.377Z,86.21
2023-01-12T06:18:18.834Z,86.57
2023-01-12T06:20:46.705Z,86.13
2023-01-12T06:23:14.525Z,86.25
2023-01-12T06:25:42.323Z,86.05
2023-01-12T06:28:10.111Z,86.42
2023-01-12T06:30:37.953Z,86.92
2023-01-12T06:33:07.195Z,86.92
2023-01-12T06:35:35.098Z,86.04
2023-01-12T06:38:02.964Z,87.15
2023-01-12T06:40:30.804Z,87.29
2023-01-12T06:42:58.709Z,87.22
2023-01-12T06:45:26.594Z,86.42
2023-01-12T06:47:55.777Z,86.69
2023-01-12T06:50:24.988Z,87.10
2023-01-12T06:52:52.830Z,86.18
2023-01-12T06:55:21.043Z,86.02
2023-01-12T06:57:49.187Z,85.82
2023-01-12T07:00:17.320Z,85.81
2023-01-12T07:02:45.223Z,86.35
2023-01-12T07:05:13.103Z,86.04
2023-01-12T07:07:43.452Z,85.71
2023-01-12T07:10:12.996Z,86.11
2023-01-12T07:12:41.145Z,85.93
2023-01-12T07:15:10.004Z,85.53
2023-01-12T07:17:37.835Z,85.37
2023-01-12T07:20:06.604Z,85.32
2023-01-12T07:22:35.781Z,85.84
2023-01-12T07:25:05.316Z,84.91
2023-01-12T07:27:33.120Z,85.06
2023-01-12T07:30:00.927Z,85.05
2023-01-12T07:32:29.765Z,85.42
2023-01-12T07:34:57.606Z,84.64
2023-01-12T07:37:25.398Z,84.31
2023-01-12T07:39:53.261Z,84.61
2023-01-12T07:42:25.064Z,83.80
2023-01-12T07:44:53.544Z,84.09
2023-01-12T07:47:21.777Z,83.81
2023-01-12T07:49:49.626Z,84.09
2023-01-12T07:52:17.477Z,83.37
2023-01-12T07:54:45.380Z,83.22
2023-01-12T07:57:13.274Z,82.89
2023-01-12T07:59:42.394Z,83.45
2023-01-12T08:02:16.403Z,83.10
2023-01-12T08:04:44.773Z,83.41
2023-01-12T08:07:13.100Z,83.36
2023-01-12T08:09:40.989Z,83.07
2023-01-12T08:12:09.028Z,83.07
2023-01-12T08:14:38.875Z,82.76
2023-01-12T08:17:11.921Z,82.88
2023-01-12T08:19:44.007Z,83.37
2023-01-12T08:22:18.522Z,83.19
2023-01-12T08:24:52.528Z,82.88
2023-01-12T08:27:24.159Z,82.59
2023-01-12T08:29:55.681Z,82.57
2023-01-12T08:32:27.470Z,82.97
2023-01-12T08:35:01.660Z,82.84
2023-01-12T08:37:31.124Z,83.22
2023-01-12T08:39:59.156Z,83.37
2023-01-12T08:42:28.755Z,83.29
2023-01-12T08:44:57.524Z,82.81
2023-01-12T08:47:30.233Z,83.30
2023-01-12T08:50:00.343Z,83.08
2023-01-12T08:52:29.452Z,83.86
2023-01-12T08:54:57.615Z,83.41
2023-01-12T08:57:25.459Z,83.07
2023-01-12T08:59:53.329Z,83.31
2023-01-12T09:02:21.482Z,83.43
2023-01-12T09:04:50.799Z,83.07
2023-01-12T09:07:19.968Z,83.04
2023-01-12T09:09:47.810Z,82.67
2023-01-12T09:12:15.650Z,82.98
2023-01-12T09:14:43.619Z,82.61
2023-01-12T09:17:11.555Z,83.35
2023-01-12T09:19:39.727Z,83.48
2023-01-12T09:22:08.969Z,83.53
2023-01-12T09:24:36.821Z,83.68
2023-01-12T09:27:04.799Z,84.15
2023-01-12T09:29:32.615Z,83.13
2023-01-12T09:32:00.578Z,83.18
2023-01-12T09:34:28.594Z,83.84
2023-01-12T09:36:57.132Z,83.59
2023-01-12T09:39:28.860Z,83.74
2023-01-12T09:42:16.439Z,83.27
2023-01-12T09:45:03.642Z,83.89
2023-01-12T09:47:36.408Z,83.84
2023-01-12T09:50:10.672Z,83.50
2023-01-12T09:52:42.565Z,83.72
2023-01-12T09:55:16.264Z,83.66
2023-01-12T09:58:02.340Z,83.36
2023-01-12T10:00:30.235Z,83.43
2023-01-12T10:03:13.285Z,82.22
2023-01-12T10:05:47.245Z,82.74
2023-01-12T10:08:29.687Z,82.46
2023-01-12T10:11:09.445Z,81.98
2023-01-12T10:14:10.686Z,82.07
2023-01-12T10:16:51.725Z,81.77
2023-01-12T10:19:26.253Z,82.94
2023-01-12T10:21:55.379Z,82.32
2023-01-12T10:24:24.614Z,81.64
2023-01-12T10:27:02.839Z,81.24
2023-01-12T10:29:33.977Z,81.07
2023-01-12T10:32:01.877Z,81.10
2023-01-12T10:34:49.215Z,81.25
2023-01-12T10:37:17.226Z,80.57
2023-01-12T10:39:45.176Z,80.68
2023-01-12T10:42:38.105Z,80.60
2023-01-12T10:45:14.390Z,80.25
2023-01-12T10:47:43.192Z,80.71
2023-01-12T10:50:22.869Z,80.17
2023-01-12T10:52:56.985Z,80.94
2023-01-12T10:55:30.007Z,80.12
2023-01-12T10:57:59.801Z,80.53
2023-01-12T11:00:29.729Z,79.96
2023-01-12T11:02:58.278Z,80.63
2023-01-12T11:05:36.644Z,80.07
2023-01-12T11:08:05.425Z,79.50
2023-01-12T11:10:36.550Z,79.64
2023-01-12T11:13:08.930Z,80.14
2023-01-12T11:15:39.991Z,80.72
2023-01-12T11:18:29.169Z,79.83
2023-01-12T11:21:02.192Z,79.71
2023-01-12T11:23:37.699Z,80.04
2023-01-12T11:26:14.611Z,80.51
2023-01-12T11:28:48.678Z,80.83
2023-01-12T11:31:23.476Z,80.19
2023-01-12T11:33:56.339Z,80.88
2023-01-12T11:36:28.874Z,80.86
2023-01-12T11:39:02.667Z,80.72
2023-01-12T11:41:36.623Z,80.75
2023-01-12T11:44:13.877Z,80.92
2023-01-12T11:46:47.219Z,81.05
2023-01-12T11:49:20.677Z,81.76
2023-01-12T11:51:50.609Z,81.88
2023-01-12T11:54:20.363Z,80.96
2023-01-12T11:57:29.785Z,81.06
2023-01-12T12:00:13.356Z,81.79
2023-01-12T12:02:43.170Z,81.76
2023-01-12T12:05:24.593Z,81.66
2023-01-12T12:08:06.402Z,82.81
2023-01-12T12:10:43.799Z,82.42
2023-01-12T12:13:30.502Z,82.15
2023-01-12T12:16:13.953Z,82.07
2023-01-12T12:18:54.517Z,82.92
2023-01-12T12:21:39.489Z,82.42
2023-01-12T12:24:20.631Z,82.20
2023-01-12T12:26:59.048Z,82.19
2023-01-12T12:29:44.409Z,82.25
2023-01-12T12:32:29.455Z,82.43
2023-01-12T12:35:15.649Z,82.54
2023-01-12T12:37:52.704Z,81.91
2023-01-12T12:40:56.218Z,81.60
2023-01-12T12:43:49.591Z,82.09
2023-01-12T12:46:25.509Z,82.55
2023-01-12T12:49:01.128Z,82.18
2023-01-12T12:51:32.003Z,82.58
2023-01-12T12:54:02.904Z,81.93
2023-01-12T12:56:34.280Z,82.24
2023-01-12T12:59:02.936Z,82.32
2023-01-12T13:01:43.612Z,82.11
2023-01-12T13:04:57.654Z,82.54
2023-01-12T13:07:27.042Z,82.93
2023-01-12T13:10:05.535Z,82.25
2023-01-12T13:12:35.544Z,83.36
2023-01-12T13:15:36.942Z,83.39
2023-01-12T13:18:07.052Z,83.79
2023-01-12T13:20:56.445Z,84.00
2023-01-12T13:23:44.741Z,83.35
2023-01-12T13:26:38.582Z,83.15
2023-01-12T13:29:41.225Z,83.80
2023-01-12T13:32:45.909Z,83.64
2023-01-12T13:35:58.683Z,84.46
2023-01-12T13:38:43.842Z,83.92
2023-01-12T13:41:38.916Z,83.34
2023-01-12T13:44:08.254Z,84.58
2023-01-12T13:46:42.246Z,83.97
2023-01-12T13:49:26.861Z,84.13
2023-01-12T13:52:02.593Z,83.58
2023-01-12T13:54:33.487Z,83.68
2023-01-12T13:57:03.402Z,84.20
2023-01-12T13:59:32.850Z,83.48
2023-01-12T14:02:00.899Z,84.17
2023-01-12T14:05:01.025Z,83.45
2023-01-12T14:07:44.342Z,83.72
2023-01-12T14:10:28.809Z,84.46
2023-01-12T14:13:14.114Z,84.46
2023-01-12T14:16:01.651Z,84.54
2023-01-12T14:18:41.313Z,84.62
2023-01-12T14:21:22.043Z,84.13
2023-01-12T14:23:49.868Z,84.10
2023-01-12T14:26:23.860Z,84.24
2023-01-12T14:28:53.244Z,83.92
2023-01-12T14:31:27.188Z,84.85
2023-01-12T14:33:57.167Z,84.70
2023-01-12T14:36:28.970Z,84.02
2023-01-12T14:38:59.264Z,83.65
2023-01-12T14:41:48.126Z,84.35
2023-01-12T14:44:38.007Z,84.27
2023-01-12T14:47:06.088Z,84.27
2023-01-12T14:49:35.842Z,83.90
2023-01-12T14:52:22.797Z,84.32
2023-01-12T14:54:52.204Z,83.62
2023-01-12T14:57:25.036Z,83.99
2023-01-12T14:59:53.652Z,84.24
2023-01-12T15:02:33.298Z,83.47
2023-01-12T15:05:04.111Z,83.78
2023-01-12T15:07:36.120Z,83.91
2023-01-12T15:10:21.073Z,84.30
2023-01-12T15:12:54.362Z,83.92
2023-01-12T15:15:24.533Z,84.64
2023-01-12T15:18:12.551Z,84.86
2023-01-12T15:21:00.866Z,85.23
2023-01-12T15:23:48.270Z,84.75
2023-01-12T15:26:16.148Z,85.70
2023-01-12T15:28:46.052Z,85.42
2023-01-12T15:31:20.292Z,85.49
2023-01-12T15:33:48.296Z,85.01
2023-01-12T15:36:16.749Z,84.97
2023-01-12T15:38:44.576Z,85.37
2023-01-12T15:41:18.368Z,85.27
2023-01-12T15:43:47.526Z,85.63
2023-01-12T15:46:20.327Z,85.47
2023-01-12T15:48:48.113Z,85.47
2023-01-12T15:51:16.930Z,85.40
2023-01-12T15:53:44.879Z,85.95
2023-01-12T15:56:15.367Z,85.16
2023-01-12T15:58:43.368Z,85.57
2023-01-12T16:01:17.357Z,85.88
2023-01-12T16:04:09.583Z,85.80
2023-01-12T16:06:34.972Z,86.03
2023-01-12T16:09:02.838Z,85.25
2023-01-12T16:11:30.760Z,86.01
2023-01-12T16:13:58.605Z,85.76
2023-01-12T16:16:29.114Z,85.62
2023-01-12T16:18:59.780Z,86.08
2023-01-12T16:21:29.432Z,85.13
2023-01-12T16:23:57.985Z,85.32
2023-01-12T16:26:26.758Z,85.63
2023-01-12T16:28:55.069Z,85.46
2023-01-12T16:31:23.024Z,86.21
2023-01-12T16:33:52.336Z,85.78
2023-01-12T16:36:20.138Z,85.63
2023-01-12T16:38:47.972Z,85.67
2023-01-12T16:41:19.137Z,86.09
2023-01-12T16:43:47.143Z,85.34
2023-01-12T16:46:15.842Z,85.58
2023-01-12T16:48:43.847Z,85.52
2023-01-12T16:51:14.401Z,85.49
2023-01-12T16:53:42.986Z,84.87
2023-01-12T16:56:13.177Z,84.97
2023-01-12T16:58:41.926Z,85.02
2023-01-12T17:01:12.270Z,85.19
2023-01-12T17:03:41.586Z,85.32
2023-01-12T17:06:11.315Z,85.60
2023-01-12T17:08:40.813Z,84.85
2023-01-12T17:11:09.917Z,84.91
2023-01-12T17:13:38.461Z,85.20
2023-01-12T17:16:08.590Z,85.47
2023-01-12T17:18:37.446Z,84.82
2023-01-12T17:21:09.055Z,84.46
2023-01-12T17:23:37.448Z,84.56
2023-01-12T17:26:08.627Z,84.16
2023-01-12T17:28:36.603Z,83.75
2023-01-12T17:31:08.449Z,84.26
2023-01-12T17:33:36.597Z,83.81
2023-01-12T17:36:05.430Z,82.96
2023-01-12T17:38:34.785Z,83.47
2023-01-12T17:41:09.537Z,82.78
2023-01-12T17:43:37.254Z,82.71
2023-01-12T17:46:09.833Z,82.74
2023-01-12T17:48:37.754Z,82.88
2023-01-12T17:51:11.656Z,81.88
2023-01-12T17:53:39.670Z,82.83
2023-01-12T17:56:09.876Z,83.00
2023-01-12T17:58:38.331Z,81.73
2023-01-12T18:01:11.816Z,82.54
2023-01-12T18:03:39.794Z,81.93
2023-01-12T18:06:12.080Z,82.11
2023-01-12T18:08:47.133Z,81.75
2023-01-12T18:11:17.029Z,82.68
2023-01-12T18:13:44.996Z,81.83
2023-01-12T18:16:14.985Z,82.15
2023-01-12T18:18:44.085Z,81.92
2023-01-12T18:21:14.225Z,81.46
2023-01-12T18:23:43.494Z,82.05
2023-01-12T18:26:13.899Z,81.49
2023-01-12T18:28:43.667Z,81.29
2023-01-12T18:31:13.577Z,81.71
2023-01-12T18:33:41.522Z,80.92
2023-01-12T18:36:10.545Z,80.57
2023-01-12T18:38:39.797Z,80.56
2023-01-12T18:41:25.204Z,81.13
2023-01-12T18:43:54.873Z,81.12
2023-01-12T18:46:42.875Z,80.70
2023-01-12T18:49:10.008Z,80.78
2023-01-12T18:51:55.280Z,80.54
2023-01-12T18:54:23.095Z,80.89
2023-01-12T18:56:51.707Z,80.83
2023-01-12T18:59:21.584Z,80.12
2023-01-12T19:01:50.061Z,80.50
2023-01-12T19:04:28.525Z,80.58
2023-01-12T19:07:00.704Z,80.25
2023-01-12T19:09:38.436Z,80.79
2023-01-12T19:12:07.344Z,80.08
2023-01-12T19:14:54.170Z,79.96
2023-01-12T19:17:30.909Z,80.11
2023-01-12T19:20:00.216Z,80.23
2023-01-12T19:22:46.392Z,79.27
2023-01-12T19:25:33.171Z,79.56
2023-01-12T19:28:18.658Z,79.44
2023-01-12T19:30:48.230Z,79.34
2023-01-12T19:33:17.232Z,80.06
2023-01-12T19:35:46.390Z,79.89
2023-01-12T19:38:15.685Z,79.77
2023-01-12T19:40:47.565Z,80.26
2023-01-12T19:43:19.868Z,79.60
2023-01-12T19:45:51.888Z,79.24
2023-01-12T19:48:21.674Z,79.04
2023-01-12T19:50:50.012Z,79.88
2023-01-12T19:53:20.425Z,79.14
2023-01-12T19:55:49.952Z,79.17
2023-01-12T19:58:17.841Z,80.01
2023-01-12T20:00:46.392Z,79.47
2023-01-12T20:03:17.511Z,79.83
2023-01-12T20:05:47.532Z,79.44
2023-01-12T20:08:16.370Z,79.03
2023-01-12T20:10:44.890Z,79.78
2023-01-12T20:13:14.417Z,79.37
2023-01-12T20:15:43.374Z,79.60
2023-01-12T20:18:13.713Z,79.65
2023-01-12T20:20:43.018Z,79.66
2023-01-12T20:23:11.833Z,79.89
2023-01-12T20:25:40.016Z,80.40
2023-01-12T20:28:08.449Z,79.56
2023-01-12T20:30:38.147Z,79.55
2023-01-12T20:33:08.513Z,79.93
2023-01-12T20:35:38.348Z,79.66
2023-01-12T20:38:13.218Z,78.95
2023-01-12T20:40:41.276Z,79.43
2023-01-12T20:43:09.343Z,79.30
2023-01-12T20:45:37.814Z,79.81
2023-01-12T20:48:05.680Z,79.36
2023-01-12T20:50:33.559Z,79.91
2023-01-12T20:53:01.588Z,79.98
2023-01-12T20:55:30.814Z,79.73
2023-01-12T20:57:58.640Z,79.80
2023-01-12T21:00:27.318Z,79.86
2023-01-12T21:02:55.189Z,80.06
2023-01-12T21:05:23.015Z,79.93
2023-01-12T21:07:57.002Z,79.38
2023-01-12T21:10:32.838Z,80.38
2023-01-12T21:13:00.685Z,79.41
2023-01-12T21:15:28.571Z,79.36
2023-01-12T21:17:56.422Z,78.85
2023-01-12T21:20:24.414Z,79.12
2023-01-12T21:22:52.963Z,79.87
2023-01-12T21:25:21.070Z,79.77
2023-01-12T21:27:50.345Z,79.83
2023-01-12T21:30:18.621Z,80.02
2023-01-12T21:32:46.628Z,79.31
2023-01-12T21:35:15.078Z,79.82
2023-01-12T21:42:07.012Z,80.10
2023-01-12T21:44:36.468Z,80.04
2023-01-12T21:47:04.215Z,80.06
2023-01-12T21:49:31.979Z,80.18
2023-01-12T21:51:59.761Z,80.31
2023-01-12T21:54:27.628Z,79.42
2023-01-12T21:56:55.436Z,80.17
2023-01-12T21:59:23.289Z,79.89
2023-01-12T22:01:52.576Z,79.38
2023-01-12T22:04:20.451Z,79.62
2023-01-12T22:06:50.829Z,80.07
2023-01-12T22:09:18.984Z,79.98
2023-01-12T22:11:46.698Z,80.22
2023-01-12T22:14:14.634Z,80.00
2023-01-12T22:16:42.401Z,79.44
2023-01-12T22:19:11.523Z,79.66
2023-01-12T22:21:39.365Z,79.64
2023-01-12T22:24:08.168Z,79.48
2023-01-12T22:26:36.470Z,79.37
2023-01-12T22:29:04.292Z,79.85
2023-01-12T22:31:32.119Z,79.92
2023-01-12T22:34:02.776Z,79.38
2023-01-12T22:36:34.845Z,78.75
2023-01-12T22:39:03.055Z,79.50
2023-01-12T22:41:30.883Z,79.43
2023-01-12T22:43:58.662Z,79.03
2023-01-12T22:46:28.677Z,78.90
2023-01-12T22:48:59.244Z,79.28
2023-01-12T22:51:29.353Z,78.78
2023-01-12T22:53:58.687Z,79.20
2023-01-12T22:56:26.560Z,79.30
2023-01-12T22:58:55.900Z,79.33
2023-01-12T23:01:25.896Z,78.82
2023-01-12T23:03:54.263Z,78.60
2023-01-12T23:06:23.232Z,79.01
2023-01-12T23:08:51.629Z,79.16
2023-01-12T23:11:22.814Z,79.14
2023-01-12T23:13:51.326Z,79.45
2023-01-12T23:16:20.168Z,79.64
2023-01-12T23:18:49.782Z,80.58
2023-01-12T23:21:19.159Z,80.37
2023-01-12T23:23:48.371Z,80.43
2023-01-12T23:26:18.400Z,80.03
2023-01-12T23:28:49.932Z,79.70
2023-01-12T23:31:21.200Z,79.94
2023-01-12T23:33:49.600Z,79.54
2023-01-12T23:36:19.279Z,79.27
2023-01-12T23:38:47.489Z,79.70
2023-01-12T23:41:18.276Z,80.37
2023-01-12T23:43:48.898Z,80.35
2023-01-12T23:46:20.117Z,79.95
2023-01-12T23:48:47.875Z,80.54
2023-01-12T23:51:16.467Z,80.67
2023-01-12T23:53:45.151Z,80.19
2023-01-12T23:56:14.691Z,80.72
2023-01-12T23:58:43.582Z,81.21
